Terminal Aerodrome Forecast
Issued by NWS Wilmington, NC

Home | Current Version | Previous Version | Text Only | Print | Product List | Glossary On
Versions: 1 2 3 4 5 6 7 8 9 10 11 12 13 14 15 16 17 18
000
FTUS42 KILM 280547
TAFMYR
TAF
KMYR 280547Z 2806/2906 20005KT P6SM SCT080
     FM281300 22007KT P6SM VCSH SCT035 BKN070
     FM281500 22008KT P6SM VCSH BKN070 PROB30 2815/2818 4SM -TSRA
      OVC015CB
     FM281800 21012KT P6SM SCT050 BKN100
     FM290500 26007KT P6SM FEW045
      AMD LTD TO CLD VIS AND WIND TIL 281000=

USA.gov is the U.S. government's official web portal to all federal, state and local government web resources and services.